Time;durP1;ratioP1;P1;durP2;ratioP2;P2;SDS_P1;SDS_P2;PMS_P1;PMS_P2;Temp;Humidity;BMP_temperature;BMP_pressure;BME280_temperature;BME280_humidity;BME280_pressure;Samples;Min_cycle;Max_cycle;Signal;HPM_P1;HPM_P2
2023/03/20 04:02:10;;;;;;;14.55;6.40;;;7.80;99.90;;;;;;6230312;22;20044;-77
2023/03/20 04:04:42;;;;;;;19.05;6.35;;;7.80;99.90;;;;;;6245172;22;20036;-75
2023/03/20 04:07:07;;;;;;;13.32;6.47;;;7.80;99.90;;;;;;6246987;22;20008;-78
2023/03/20 04:09:33;;;;;;;18.73;7.07;;;7.70;99.90;;;;;;6245973;23;20015;-77
2023/03/20 04:11:59;;;;;;;19.90;7.47;;;7.70;99.90;;;;;;6244610;22;20068;-76
2023/03/20 04:14:25;;;;;;;16.38;6.65;;;7.70;99.90;;;;;;6244997;23;20450;-76
2023/03/20 04:16:50;;;;;;;19.17;7.55;;;7.70;99.90;;;;;;6246356;23;20127;-76
2023/03/20 04:19:16;;;;;;;14.35;6.68;;;7.70;99.90;;;;;;6245006;23;20338;-76
2023/03/20 04:21:42;;;;;;;17.83;7.45;;;7.70;99.90;;;;;;6244924;22;20012;-76
2023/03/20 04:24:07;;;;;;;19.13;7.05;;;7.70;99.90;;;;;;6244652;23;20091;-76
2023/03/20 04:26:33;;;;;;;16.15;7.50;;;7.70;99.90;;;;;;6245070;23;20087;-76
2023/03/20 04:28:58;;;;;;;15.88;6.57;;;7.70;99.90;;;;;;6244928;23;20012;-76
2023/03/20 04:31:24;;;;;;;15.77;7.53;;;7.70;99.90;;;;;;6244196;22;20087;-76
2023/03/20 04:33:50;;;;;;;16.48;7.20;;;7.70;99.90;;;;;;6247056;22;20016;-76
2023/03/20 04:36:15;;;;;;;17.90;7.80;;;7.70;99.90;;;;;;6246816;22;20146;-76
2023/03/20 04:38:41;;;;;;;20.20;7.97;;;7.60;99.90;;;;;;6245208;23;20510;-77
2023/03/20 04:41:07;;;;;;;19.25;7.50;;;7.70;99.90;;;;;;6246959;22;20039;-76
2023/03/20 04:43:33;;;;;;;19.63;7.65;;;7.60;99.90;;;;;;6246902;23;20052;-75
2023/03/20 04:45:59;;;;;;;17.88;7.20;;;7.60;99.90;;;;;;6272611;22;20019;-76
2023/03/20 04:48:26;;;;;;;18.23;8.10;;;7.60;99.90;;;;;;6246514;23;20077;-77
2023/03/20 04:50:52;;;;;;;17.30;7.82;;;7.60;99.90;;;;;;6246662;22;20498;-76
2023/03/20 04:53:18;;;;;;;19.40;7.60;;;7.60;99.90;;;;;;6246939;23;20042;-76
2023/03/20 04:55:44;;;;;;;19.02;8.35;;;7.60;99.90;;;;;;6248179;22;20020;-76
2023/03/20 04:58:11;;;;;;;22.88;8.75;;;7.60;99.90;;;;;;6246824;23;20012;-77
2023/03/20 05:00:37;;;;;;;17.90;8.63;;;7.60;99.90;;;;;;6246614;23;20024;-76
2023/03/20 05:03:03;;;;;;;20.10;8.82;;;7.60;99.90;;;;;;6249538;23;20012;-76
2023/03/20 05:05:28;;;;;;;27.17;10.52;;;7.60;99.90;;;;;;6248439;22;20472;-76
2023/03/20 05:07:54;;;;;;;20.25;9.25;;;7.60;99.90;;;;;;6246498;23;20389;-77
2023/03/20 05:10:20;;;;;;;23.42;9.40;;;7.60;99.90;;;;;;6246560;22;20008;-77
2023/03/20 05:12:46;;;;;;;21.70;10.60;;;7.60;99.90;;;;;;6248396;23;20338;-76
2023/03/20 05:15:12;;;;;;;26.08;10.48;;;7.60;99.90;;;;;;6248264;22;20012;-76
2023/03/20 05:17:38;;;;;;;25.25;10.27;;;7.60;99.90;;;;;;6247631;22;20338;-76
2023/03/20 05:20:04;;;;;;;21.50;9.48;;;7.60;99.90;;;;;;6246490;23;20103;-76
2023/03/20 05:22:29;;;;;;;20.98;9.43;;;7.60;99.90;;;;;;6248060;22;20015;-76
2023/03/20 05:24:55;;;;;;;21.15;8.77;;;7.60;99.90;;;;;;6248496;23;20087;-77
2023/03/20 05:27:21;;;;;;;24.80;9.70;;;7.60;99.90;;;;;;6246686;23;20016;-79
2023/03/20 05:29:46;;;;;;;21.70;9.75;;;7.60;99.90;;;;;;6246771;23;20004;-78
2023/03/20 05:32:12;;;;;;;21.55;9.18;;;7.60;99.90;;;;;;6246628;22;20087;-77
2023/03/20 05:34:38;;;;;;;20.95;10.15;;;7.60;99.90;;;;;;6247897;23;20012;-78
2023/03/20 05:37:03;;;;;;;20.20;9.75;;;7.60;99.90;;;;;;6246117;23;20012;-79
2023/03/20 05:39:29;;;;;;;22.88;9.52;;;7.60;99.90;;;;;;6247390;23;20020;-79
2023/03/20 05:41:55;;;;;;;18.23;8.40;;;7.60;99.90;;;;;;6245568;22;20023;-79
2023/03/20 05:44:20;;;;;;;20.33;9.35;;;7.60;99.90;;;;;;6246594;23;20341;-80
2023/03/20 05:46:46;;;;;;;24.30;9.30;;;7.60;99.90;;;;;;6246369;23;20381;-80
2023/03/20 05:49:12;;;;;;;21.23;10.63;;;7.60;99.90;;;;;;6248048;23;20426;-79
2023/03/20 05:51:37;;;;;;;20.65;9.90;;;7.50;99.90;;;;;;6220762;23;20008;-79
2023/03/20 05:54:03;;;;;;;19.15;9.05;;;7.50;99.90;;;;;;6246282;23;20016;-78
2023/03/20 05:56:30;;;;;;;20.80;9.13;;;7.50;99.90;;;;;;6248046;22;20012;-78
2023/03/20 05:58:55;;;;;;;20.13;9.60;;;7.50;99.90;;;;;;6246437;23;20019;-79
2023/03/20 06:01:21;;;;;;;19.00;9.50;;;7.60;99.90;;;;;;6247576;22;20014;-78
2023/03/20 06:03:47;;;;;;;22.80;9.48;;;7.60;99.90;;;;;;6247998;23;20015;-78
2023/03/20 06:06:14;;;;;;;21.40;9.18;;;7.60;99.90;;;;;;6245930;23;20342;-80
2023/03/20 06:08:40;;;;;;;15.98;8.18;;;7.60;99.90;;;;;;6246104;23;20433;-79
2023/03/20 06:11:07;;;;;;;21.20;9.93;;;7.60;99.90;;;;;;6246038;22;20040;-80
2023/03/20 06:13:32;;;;;;;20.02;9.50;;;7.60;99.90;;;;;;6246193;23;20012;-79
2023/03/20 06:15:58;;;;;;;23.85;9.82;;;7.60;99.90;;;;;;6246106;23;20008;-79
2023/03/20 06:18:24;;;;;;;21.08;9.38;;;7.60;99.90;;;;;;6247915;23;20026;-78
2023/03/20 06:20:57;;;;;;;18.45;9.75;;;7.60;99.90;;;;;;6246223;22;20057;-80
2023/03/20 06:23:23;;;;;;;20.85;9.82;;;7.60;99.90;;;;;;6248013;22;20082;-78
2023/03/20 06:25:49;;;;;;;20.83;9.90;;;7.60;99.90;;;;;;6245827;23;20027;-79
2023/03/20 06:28:15;;;;;;;21.00;9.77;;;7.60;99.90;;;;;;6247514;22;20338;-79
2023/03/20 06:30:42;;;;;;;21.60;9.43;;;7.60;99.90;;;;;;6271410;22;20014;-79
2023/03/20 06:33:09;;;;;;;21.63;9.25;;;7.70;99.90;;;;;;6245589;23;20020;-78
2023/03/20 06:35:34;;;;;;;20.25;9.45;;;7.60;99.90;;;;;;6248205;22;20083;-79
2023/03/20 06:38:01;;;;;;;23.80;10.00;;;7.70;99.90;;;;;;6245845;23;20016;-79
2023/03/20 06:40:27;;;;;;;23.10;9.25;;;7.70;99.90;;;;;;6247391;22;20051;-81
2023/03/20 06:42:53;;;;;;;18.95;9.15;;;7.70;99.90;;;;;;6245807;23;20038;-78
2023/03/20 06:45:20;;;;;;;25.52;10.30;;;7.70;99.90;;;;;;6246643;23;20111;-78
2023/03/20 06:47:46;;;;;;;24.17;10.38;;;7.70;99.90;;;;;;6247587;23;20042;-79
2023/03/20 06:50:12;;;;;;;25.77;10.20;;;7.70;99.90;;;;;;6259352;23;20019;-75
2023/03/20 06:52:38;;;;;;;24.85;10.55;;;7.70;99.90;;;;;;6264871;23;20008;-77
2023/03/20 06:55:05;;;;;;;26.92;10.73;;;7.70;99.90;;;;;;6247492;23;20044;-77
2023/03/20 06:57:31;;;;;;;20.92;9.70;;;7.80;99.90;;;;;;6246119;23;20015;-76
2023/03/20 06:59:56;;;;;;;22.63;9.40;;;7.70;99.90;;;;;;6244741;23;20087;-77
2023/03/20 07:02:23;;;;;;;25.65;11.18;;;7.80;99.90;;;;;;6247250;22;20047;-77
2023/03/20 07:04:49;;;;;;;23.65;10.80;;;7.70;99.90;;;;;;6245983;23;20489;-77
2023/03/20 07:07:16;;;;;;;28.48;10.75;;;7.80;99.90;;;;;;6247084;22;20027;-76
2023/03/20 07:09:42;;;;;;;24.35;10.95;;;7.80;99.90;;;;;;6245559;23;20008;-78
2023/03/20 07:12:15;;;;;;;25.50;11.88;;;7.80;99.90;;;;;;6245544;22;20012;-79
2023/03/20 07:14:41;;;;;;;27.10;11.07;;;7.80;99.90;;;;;;6247972;22;20015;-76
2023/03/20 07:17:08;;;;;;;27.63;10.55;;;7.80;99.90;;;;;;6220153;23;20496;-77
2023/03/20 07:19:35;;;;;;;26.35;11.43;;;7.80;99.90;;;;;;6220086;23;20027;-77
2023/03/20 07:22:04;;;;;;;26.60;11.45;;;7.90;99.90;;;;;;6220481;23;20073;-76
2023/03/20 07:24:30;;;;;;;29.42;11.90;;;7.90;99.90;;;;;;6246390;23;20491;-77
2023/03/20 07:26:56;;;;;;;29.80;11.63;;;7.90;99.90;;;;;;6244795;23;20357;-78
2023/03/20 07:29:23;;;;;;;25.98;11.52;;;7.90;99.90;;;;;;6245263;23;20016;-78
2023/03/20 07:31:49;;;;;;;31.98;12.43;;;8.00;99.90;;;;;;6245206;22;20484;-77
2023/03/20 07:34:15;;;;;;;27.90;13.05;;;8.00;99.90;;;;;;6246891;22;20016;-77
2023/03/20 07:36:41;;;;;;;25.90;11.90;;;8.00;99.90;;;;;;6245580;23;20023;-78
2023/03/20 07:39:07;;;;;;;29.00;12.05;;;8.00;99.90;;;;;;6245223;23;20042;-78
2023/03/20 07:41:33;;;;;;;24.45;11.93;;;8.00;99.90;;;;;;6244801;22;20042;-77
2023/03/20 07:43:58;;;;;;;26.92;11.70;;;8.00;99.90;;;;;;6245011;23;20020;-77
2023/03/20 07:46:25;;;;;;;26.83;13.15;;;8.10;99.90;;;;;;6246687;23;20042;-77
2023/03/20 07:48:50;;;;;;;26.70;12.05;;;8.10;99.90;;;;;;6219752;23;20012;-76
2023/03/20 07:51:16;;;;;;;28.27;11.95;;;8.10;99.90;;;;;;6245384;22;20023;-77
2023/03/20 07:53:42;;;;;;;28.70;12.68;;;8.20;99.90;;;;;;6245220;23;20016;-76
2023/03/20 07:56:08;;;;;;;33.83;12.77;;;8.20;99.90;;;;;;6219703;23;20008;-77
2023/03/20 07:58:35;;;;;;;28.35;11.43;;;8.20;99.90;;;;;;6245436;23;20314;-76
2023/03/20 08:01:02;;;;;;;27.13;12.52;;;8.20;99.90;;;;;;6244715;22;20087;-78
2023/03/20 08:03:28;;;;;;;32.58;13.70;;;8.30;99.90;;;;;;6245287;23;20019;-77
2023/03/20 08:05:54;;;;;;;28.65;12.25;;;8.30;99.90;;;;;;6246300;23;20020;-78
2023/03/20 08:08:20;;;;;;;28.17;12.02;;;8.40;99.90;;;;;;6245322;23;20008;-77
2023/03/20 08:10:46;;;;;;;28.40;11.85;;;8.40;99.90;;;;;;6244868;22;20035;-78
2023/03/20 08:13:12;;;;;;;26.48;11.60;;;8.40;99.90;;;;;;6246505;23;20008;-76
2023/03/20 08:15:37;;;;;;;25.20;11.57;;;8.50;99.90;;;;;;6244981;23;20097;-78
2023/03/20 08:18:04;;;;;;;23.40;10.15;;;8.50;99.90;;;;;;6219579;23;20338;-76
2023/03/20 08:20:30;;;;;;;32.08;12.90;;;8.60;99.90;;;;;;6219267;22;20016;-77
2023/03/20 08:22:56;;;;;;;25.73;11.35;;;8.60;99.90;;;;;;6245190;23;20016;-77
2023/03/20 08:25:22;;;;;;;26.95;12.20;;;8.60;99.90;;;;;;6244628;23;20008;-77
2023/03/20 08:27:48;;;;;;;23.85;11.13;;;8.70;99.90;;;;;;6246567;23;20015;-77
2023/03/20 08:30:14;;;;;;;25.80;11.45;;;8.70;99.90;;;;;;6246997;22;20008;-76
2023/03/20 08:32:40;;;;;;;23.10;11.35;;;8.70;99.90;;;;;;6244647;23;20091;-76
2023/03/20 08:35:07;;;;;;;20.73;10.50;;;8.80;99.90;;;;;;6244884;23;20272;-76
2023/03/20 08:37:34;;;;;;;25.42;11.77;;;8.80;99.90;;;;;;6244539;23;20319;-77
2023/03/20 08:40:00;;;;;;;25.40;10.90;;;8.90;99.90;;;;;;6244542;23;20441;-77
2023/03/20 08:42:26;;;;;;;25.17;11.38;;;8.90;99.90;;;;;;6244249;22;20027;-78
2023/03/20 08:44:51;;;;;;;27.90;10.25;;;8.90;99.90;;;;;;6246760;22;20031;-77
2023/03/20 08:47:17;;;;;;;22.45;11.23;;;9.00;99.90;;;;;;6219502;23;20091;-76
2023/03/20 08:49:43;;;;;;;21.42;10.82;;;9.00;99.90;;;;;;6244512;23;20011;-76
2023/03/20 08:52:09;;;;;;;20.15;9.45;;;9.10;99.90;;;;;;6219397;23;20016;-76
2023/03/20 08:54:34;;;;;;;23.70;9.98;;;9.10;99.90;;;;;;6246268;23;20054;-76
2023/03/20 08:57:00;;;;;;;20.98;8.85;;;9.20;99.90;;;;;;6244619;23;20016;-75
2023/03/20 08:59:26;;;;;;;23.23;10.73;;;9.20;99.90;;;;;;6244249;23;20020;-77
2023/03/20 09:01:51;;;;;;;20.08;10.48;;;9.30;99.90;;;;;;6245546;22;20046;-77
2023/03/20 09:04:17;;;;;;;20.73;9.32;;;9.30;99.90;;;;;;6219694;23;20012;-77
2023/03/20 09:06:43;;;;;;;24.85;10.07;;;9.40;99.90;;;;;;6244714;23;20063;-75
2023/03/20 09:09:09;;;;;;;19.55;9.27;;;9.40;99.90;;;;;;6244234;23;20016;-77
2023/03/20 09:11:35;;;;;;;22.05;10.02;;;9.40;99.90;;;;;;6245529;22;20018;-76
2023/03/20 09:14:01;;;;;;;26.92;10.52;;;9.40;99.90;;;;;;6244546;23;20051;-75
2023/03/20 09:16:26;;;;;;;16.40;8.95;;;9.50;99.90;;;;;;6244322;23;20012;-76
2023/03/20 09:18:53;;;;;;;17.02;8.88;;;9.50;99.90;;;;;;6244170;23;20008;-75
2023/03/20 09:21:18;;;;;;;21.65;10.55;;;9.50;99.90;;;;;;6244454;22;20032;-75
2023/03/20 09:23:44;;;;;;;21.00;9.82;;;9.60;99.90;;;;;;6219022;23;20015;-76
2023/03/20 09:26:10;;;;;;;22.15;11.43;;;9.70;99.90;;;;;;6246179;23;20079;-75
2023/03/20 09:28:35;;;;;;;22.67;10.20;;;9.70;99.90;;;;;;6248051;23;20042;-75
2023/03/20 09:31:01;;;;;;;26.70;10.90;;;9.80;99.90;;;;;;6246325;22;20008;-76
2023/03/20 09:33:27;;;;;;;18.80;8.40;;;9.80;99.90;;;;;;6246440;23;20023;-75
2023/03/20 09:35:53;;;;;;;23.73;10.23;;;9.70;99.90;;;;;;6246524;23;20016;-76
2023/03/20 09:38:20;;;;;;;22.05;9.25;;;9.70;99.90;;;;;;6248145;22;20016;-76
2023/03/20 09:40:55;;;;;;;24.17;9.80;;;9.70;99.90;;;;;;6247988;22;20277;-76
2023/03/20 09:43:42;;;;;;;21.45;8.93;;;9.70;99.90;;;;;;6246015;23;20012;-76
2023/03/20 09:46:33;;;;;;;17.90;8.80;;;9.70;99.90;;;;;;6245834;23;20134;-78
2023/03/20 09:49:24;;;;;;;18.52;9.48;;;9.70;99.90;;;;;;6246154;23;20016;-75
2023/03/20 09:52:03;;;;;;;21.92;10.75;;;9.70;99.90;;;;;;6247686;22;20444;-76
2023/03/20 09:54:45;;;;;;;27.73;10.85;;;9.60;99.90;;;;;;6245554;23;20091;-76
2023/03/20 09:57:20;;;;;;;19.25;9.20;;;9.70;99.90;;;;;;6247862;23;20079;-76
2023/03/20 09:59:47;;;;;;;22.42;9.73;;;9.70;99.90;;;;;;6245940;23;20031;-76
2023/03/20 10:02:30;;;;;;;18.08;9.27;;;9.70;99.90;;;;;;6245538;22;20023;-76
2023/03/20 10:04:55;;;;;;;17.58;8.48;;;9.80;99.90;;;;;;6245460;23;20091;-76
2023/03/20 10:07:22;;;;;;;13.68;6.70;;;9.80;99.90;;;;;;6245545;23;20398;-76
2023/03/20 10:09:50;;;;;;;20.95;7.88;;;9.80;99.90;;;;;;6247469;22;20012;-75
2023/03/20 10:12:48;;;;;;;21.50;6.82;;;9.70;99.90;;;;;;6245516;22;20099;-76
2023/03/20 10:15:27;;;;;;;20.45;8.25;;;9.70;99.90;;;;;;6245772;23;20434;-76
2023/03/20 10:17:57;;;;;;;16.10;6.47;;;9.70;99.90;;;;;;6245637;23;20016;-76
2023/03/20 10:21:00;;;;;;;16.90;6.72;;;9.70;99.90;;;;;;6246937;22;20016;-76
2023/03/20 10:23:38;;;;;;;14.20;5.90;;;9.80;99.90;;;;;;6247505;23;20016;-76
2023/03/20 10:26:11;;;;;;;13.23;5.88;;;9.90;99.90;;;;;;6247108;22;20021;-76
2023/03/20 10:28:54;;;;;;;16.20;6.30;;;9.90;99.90;;;;;;6247166;23;20012;-75
2023/03/20 10:31:47;;;;;;;14.75;5.68;;;9.90;99.90;;;;;;6247393;22;20037;-76
2023/03/20 10:34:42;;;;;;;18.02;6.10;;;9.80;99.90;;;;;;6245081;23;20095;-77
2023/03/20 10:37:25;;;;;;;11.45;4.78;;;9.80;99.90;;;;;;6232001;23;20438;-75
2023/03/20 10:39:56;;;;;;;16.15;6.40;;;9.90;99.90;;;;;;6245260;23;20520;-76
2023/03/20 10:42:29;;;;;;;13.68;5.32;;;9.90;99.90;;;;;;6245212;22;20020;-76
2023/03/20 10:45:24;;;;;;;19.58;5.57;;;9.90;99.90;;;;;;6245509;22;20012;-77
2023/03/20 10:47:52;;;;;;;16.48;4.93;;;9.90;99.90;;;;;;6245512;23;20016;-76
2023/03/20 10:50:22;;;;;;;13.60;5.00;;;9.90;99.90;;;;;;6247008;22;20012;-78
2023/03/20 10:52:49;;;;;;;12.07;5.05;;;9.90;99.90;;;;;;6244713;23;20450;-77
2023/03/20 10:55:20;;;;;;;10.02;4.60;;;9.90;99.90;;;;;;6244588;23;20043;-76
2023/03/20 10:57:54;;;;;;;13.32;4.85;;;9.80;99.90;;;;;;6244541;23;20373;-76
2023/03/20 11:00:22;;;;;;;13.13;5.18;;;9.70;99.90;;;;;;6245806;22;20019;-76
2023/03/20 11:02:48;;;;;;;14.88;4.50;;;9.70;99.90;;;;;;6246333;22;20365;-76
2023/03/20 11:05:22;;;;;;;12.60;5.20;;;9.70;99.90;;;;;;6244361;23;20048;-75
2023/03/20 11:08:01;;;;;;;12.45;4.53;;;9.80;99.90;;;;;;6244350;23;20066;-76
2023/03/20 11:10:27;;;;;;;10.35;3.72;;;9.80;99.90;;;;;;6244367;22;20015;-75
2023/03/20 11:12:53;;;;;;;13.77;5.05;;;9.80;99.90;;;;;;6243975;23;20012;-75
2023/03/20 11:15:23;;;;;;;10.32;3.97;;;9.80;99.90;;;;;;6243991;23;20027;-76
2023/03/20 11:17:57;;;;;;;21.73;6.22;;;9.80;99.90;;;;;;6245801;22;20012;-76
2023/03/20 11:20:25;;;;;;;9.13;4.00;;;9.80;99.90;;;;;;6243959;22;20509;-76
2023/03/20 11:23:01;;;;;;;15.60;4.60;;;9.80;99.90;;;;;;6246198;22;20019;-75
2023/03/20 11:25:45;;;;;;;17.52;5.30;;;9.80;99.90;;;;;;6244061;23;20016;-76
2023/03/20 11:28:27;;;;;;;12.75;4.63;;;9.70;99.90;;;;;;6245916;22;20016;-77
2023/03/20 11:31:04;;;;;;;12.15;5.18;;;9.80;99.90;;;;;;6244714;22;20484;-75
2023/03/20 11:33:30;;;;;;;11.05;4.60;;;9.80;99.90;;;;;;6244046;23;20016;-76
2023/03/20 11:35:58;;;;;;;11.57;4.90;;;9.80;99.90;;;;;;6243821;23;20028;-76
2023/03/20 11:38:24;;;;;;;11.93;4.93;;;9.80;99.90;;;;;;6243959;23;20027;-76
2023/03/20 11:40:53;;;;;;;15.55;5.03;;;9.90;99.90;;;;;;6243981;22;20100;-76
2023/03/20 11:43:27;;;;;;;14.00;5.32;;;9.90;99.90;;;;;;6244026;23;20095;-76
2023/03/20 11:46:03;;;;;;;10.15;4.78;;;9.90;99.90;;;;;;6270005;22;20044;-77
2023/03/20 11:48:44;;;;;;;15.52;5.65;;;9.90;99.90;;;;;;6243589;23;20338;-77
2023/03/20 11:51:20;;;;;;;16.33;6.18;;;9.80;99.90;;;;;;6243829;22;20043;-76
2023/03/20 11:53:56;;;;;;;15.63;5.70;;;9.60;99.90;;;;;;6243880;23;20019;-77
2023/03/20 11:56:24;;;;;;;16.65;5.60;;;9.50;99.90;;;;;;6244893;23;20020;-77
2023/03/20 11:59:05;;;;;;;15.75;5.82;;;9.30;99.90;;;;;;6243982;23;20042;-76
2023/03/20 12:01:43;;;;;;;15.88;5.85;;;9.20;99.90;;;;;;6244043;22;20395;-77
2023/03/20 12:04:19;;;;;;;17.60;6.40;;;9.10;99.90;;;;;;6246870;23;20035;-77
2023/03/20 12:07:13;;;;;;;14.70;7.13;;;9.00;99.90;;;;;;6244523;23;20031;-74
2023/03/20 12:09:57;;;;;;;19.38;7.38;;;8.90;99.90;;;;;;6246680;23;20008;-74
2023/03/20 12:12:44;;;;;;;16.90;7.00;;;8.90;99.90;;;;;;6245376;22;20012;-75
2023/03/20 12:15:33;;;;;;;17.02;7.30;;;8.90;99.90;;;;;;6244204;23;20012;-76
2023/03/20 12:18:41;;;;;;;18.65;8.13;;;8.90;99.90;;;;;;6244096;23;20446;-75
2023/03/20 12:21:26;;;;;;;24.70;9.02;;;8.70;99.90;;;;;;6221094;22;20020;-76
2023/03/20 12:24:20;;;;;;;21.25;9.20;;;8.60;99.90;;;;;;6244412;23;20028;-76
2023/03/20 12:27:20;;;;;;;18.88;8.82;;;8.60;99.90;;;;;;6244743;22;20016;-74
2023/03/20 12:29:51;;;;;;;16.85;7.10;;;8.50;99.90;;;;;;6244182;23;20008;-75
2023/03/20 12:32:35;;;;;;;22.48;9.75;;;8.40;99.90;;;;;;6246231;22;20102;-76
2023/03/20 12:35:26;;;;;;;23.35;8.70;;;8.40;99.90;;;;;;6244339;23;20023;-76
2023/03/20 12:37:52;;;;;;;21.55;9.30;;;8.30;99.90;;;;;;6219147;23;20020;-75
2023/03/20 12:40:21;;;;;;;24.67;10.80;;;8.20;99.90;;;;;;6246499;22;20504;-76
2023/03/20 12:42:47;;;;;;;18.88;9.18;;;8.20;99.90;;;;;;6245964;23;20058;-75
2023/03/20 12:45:21;;;;;;;23.33;10.50;;;8.30;99.90;;;;;;6244723;23;20020;-75
2023/03/20 12:48:00;;;;;;;25.95;10.88;;;8.20;99.90;;;;;;6243259;23;20016;-75
2023/03/20 12:50:59;;;;;;;20.92;10.60;;;8.20;99.90;;;;;;6244496;22;20079;-76
2023/03/20 12:53:38;;;;;;;23.95;10.80;;;8.20;99.90;;;;;;6244008;22;20008;-76
2023/03/20 12:56:18;;;;;;;24.60;11.57;;;8.20;99.90;;;;;;6245354;23;20050;-76
2023/03/20 12:58:56;;;;;;;26.05;11.55;;;8.20;99.90;;;;;;6243710;23;20015;-76
2023/03/20 13:01:30;;;;;;;24.30;11.00;;;8.20;99.90;;;;;;6247139;22;20012;-75
2023/03/20 13:04:04;;;;;;;25.40;11.63;;;8.20;99.90;;;;;;6248370;23;20038;-75
2023/03/20 13:07:06;;;;;;;23.55;10.73;;;8.20;99.90;;;;;;6248520;23;20070;-76
2023/03/20 13:09:39;;;;;;;26.05;10.68;;;8.20;99.90;;;;;;6248191;23;20031;-74
2023/03/20 13:12:23;;;;;;;18.50;10.25;;;8.20;99.90;;;;;;6220520;23;20019;-74
2023/03/20 13:15:11;;;;;;;24.55;11.95;;;8.20;99.90;;;;;;6247551;23;20334;-76
2023/03/20 13:17:47;;;;;;;19.15;9.80;;;8.20;99.90;;;;;;6247659;22;20020;-76
2023/03/20 13:20:35;;;;;;;23.08;11.60;;;8.10;99.90;;;;;;6245902;23;20088;-76
2023/03/20 13:23:27;;;;;;;27.88;12.73;;;8.20;99.90;;;;;;6247355;23;20012;-74
2023/03/20 13:26:17;;;;;;;22.65;12.30;;;8.20;99.90;;;;;;6246035;23;20020;-76
2023/03/20 13:29:07;;;;;;;25.20;12.52;;;8.20;99.90;;;;;;6247378;23;20373;-75
2023/03/20 13:31:37;;;;;;;24.77;12.23;;;8.20;99.90;;;;;;6247754;22;20078;-75
2023/03/20 13:34:19;;;;;;;19.35;11.13;;;8.20;99.90;;;;;;6245727;23;20429;-75
2023/03/20 13:37:13;;;;;;;29.58;13.63;;;8.20;99.90;;;;;;6247630;23;20008;-75
2023/03/20 13:39:41;;;;;;;24.10;13.43;;;8.30;99.90;;;;;;6247916;23;20329;-76
2023/03/20 13:42:18;;;;;;;25.88;14.13;;;8.20;99.90;;;;;;6245926;22;20012;-74
2023/03/20 13:44:45;;;;;;;29.65;14.80;;;8.20;99.90;;;;;;6246818;23;20051;-76
2023/03/20 13:47:18;;;;;;;25.33;13.73;;;8.20;99.90;;;;;;6245612;23;20073;-75
2023/03/20 13:50:20;;;;;;;30.60;15.20;;;8.20;99.90;;;;;;6247583;22;20012;-75
2023/03/20 13:52:59;;;;;;;30.17;15.85;;;8.20;99.90;;;;;;6245901;23;20012;-75
2023/03/20 13:55:34;;;;;;;29.73;16.65;;;8.20;99.90;;;;;;6247456;22;20434;-75
2023/03/20 13:58:06;;;;;;;34.15;17.92;;;8.20;99.90;;;;;;6247823;23;20066;-76
2023/03/20 14:01:05;;;;;;;36.20;19.02;;;8.20;99.90;;;;;;6245854;22;20019;-76
2023/03/20 14:03:34;;;;;;;32.78;16.75;;;8.30;99.90;;;;;;6241517;23;20023;-77
2023/03/20 14:06:00;;;;;;;36.80;19.23;;;8.20;99.90;;;;;;6245477;23;20020;-77
2023/03/20 14:08:26;;;;;;;38.80;18.85;;;8.20;99.90;;;;;;6245425;23;20422;-77
2023/03/20 14:11:19;;;;;;;35.67;19.05;;;8.20;99.90;;;;;;6247423;22;20046;-75
2023/03/20 14:13:53;;;;;;;38.50;19.80;;;8.30;99.90;;;;;;6245832;23;20012;-76
2023/03/20 14:16:19;;;;;;;37.05;19.00;;;8.20;99.90;;;;;;6246076;23;20016;-76
2023/03/20 14:18:48;;;;;;;39.92;21.55;;;8.30;99.90;;;;;;6247422;22;20012;-75
2023/03/20 14:21:19;;;;;;;37.80;19.85;;;8.30;99.90;;;;;;6220117;23;20074;-77
2023/03/20 14:24:01;;;;;;;36.72;19.75;;;8.30;99.90;;;;;;6246964;22;20078;-76
2023/03/20 14:26:30;;;;;;;35.25;18.30;;;8.30;99.90;;;;;;6247931;22;20012;-76
2023/03/20 14:29:28;;;;;;;37.42;20.65;;;8.30;99.90;;;;;;6247269;22;20015;-75
2023/03/20 14:32:10;;;;;;;31.05;16.75;;;8.30;99.90;;;;;;6245854;22;20016;-76
2023/03/20 14:34:51;;;;;;;39.58;20.42;;;8.30;99.90;;;;;;6247134;22;20020;-76
2023/03/20 14:37:26;;;;;;;35.40;19.48;;;8.30;99.90;;;;;;6245437;23;20023;-77
2023/03/20 14:39:55;;;;;;;40.13;21.30;;;8.30;99.90;;;;;;6245791;23;20066;-76
2023/03/20 14:42:51;;;;;;;34.15;19.92;;;8.30;99.90;;;;;;6245400;22;20070;-78
2023/03/20 14:45:36;;;;;;;;;;;8.40;99.90;;;;;;6245877;23;20401;-77
2023/03/20 14:48:24;;;;;;;39.10;21.35;;;8.40;99.90;;;;;;6245632;23;19911;-76
2023/03/20 14:51:15;;;;;;;33.60;18.02;;;8.40;99.90;;;;;;6247591;22;20012;-76
2023/03/20 14:53:41;;;;;;;32.72;19.05;;;8.40;99.90;;;;;;6246925;23;20016;-76
2023/03/20 14:56:13;;;;;;;36.90;20.70;;;8.40;99.90;;;;;;6246870;23;20016;-75
2023/03/20 14:58:42;;;;;;;36.08;19.95;;;8.40;99.90;;;;;;6245156;23;20016;-77
2023/03/20 15:01:15;;;;;;;37.70;20.75;;;8.40;99.90;;;;;;6246652;22;20016;-75
2023/03/20 15:03:44;;;;;;;34.28;20.08;;;8.40;99.90;;;;;;6246790;23;20016;-76
2023/03/20 15:06:11;;;;;;;35.60;20.23;;;8.40;99.90;;;;;;6246417;22;20308;-74
2023/03/20 15:08:46;;;;;;;31.77;17.50;;;8.40;99.90;;;;;;6246446;23;20087;-77
2023/03/20 15:11:13;;;;;;;;;;;8.50;99.90;;;;;;6245533;22;20040;-76
2023/03/20 15:13:39;;;;;;;28.75;15.95;;;8.40;99.90;;;;;;6245390;23;20189;-78
2023/03/20 15:16:09;;;;;;;31.75;17.48;;;8.40;99.90;;;;;;6245448;23;20019;-77
2023/03/20 15:18:38;;;;;;;30.73;18.73;;;8.40;99.90;;;;;;6245886;23;20030;-76
2023/03/20 15:21:18;;;;;;;29.10;17.33;;;8.40;99.90;;;;;;6244837;22;20015;-78
2023/03/20 15:23:45;;;;;;;29.05;16.23;;;8.50;99.90;;;;;;6245459;23;20163;-78
2023/03/20 15:26:14;;;;;;;26.65;16.05;;;8.50;99.90;;;;;;6247203;23;20023;-77
2023/03/20 15:28:41;;;;;;;28.10;15.50;;;8.50;99.90;;;;;;6245644;23;20009;-76
2023/03/20 15:31:26;;;;;;;28.15;16.63;;;8.50;99.90;;;;;;6247127;22;20364;-76
2023/03/20 15:33:53;;;;;;;28.20;15.75;;;8.50;99.90;;;;;;6220192;23;20027;-78
2023/03/20 15:36:24;;;;;;;32.25;17.27;;;8.60;99.90;;;;;;6247397;23;20102;-77
2023/03/20 15:38:50;;;;;;;31.35;18.27;;;8.60;99.90;;;;;;6245497;23;20020;-76
2023/03/20 15:41:27;;;;;;;28.98;17.20;;;8.60;99.90;;;;;;6245142;22;20492;-77
2023/03/20 15:43:53;;;;;;;29.65;15.77;;;8.60;99.90;;;;;;6245456;23;20445;-76
2023/03/20 15:46:25;;;;;;;23.75;14.00;;;8.60;99.90;;;;;;6245562;23;20016;-78
2023/03/20 15:48:51;;;;;;;26.98;15.10;;;8.60;99.90;;;;;;6219995;23;20054;-81
2023/03/20 15:51:19;;;;;;;33.35;18.65;;;8.60;99.90;;;;;;6219774;23;20008;-78
2023/03/20 15:53:47;;;;;;;29.98;17.60;;;8.60;99.90;;;;;;6247146;23;20012;-78
2023/03/20 15:56:16;;;;;;;27.33;16.33;;;8.60;99.90;;;;;;6220117;23;20087;-77
2023/03/20 15:58:43;;;;;;;28.27;16.65;;;8.60;99.90;;;;;;6244656;23;20023;-79
2023/03/20 16:01:16;;;;;;;28.60;16.67;;;8.60;99.90;;;;;;6244906;22;20016;-79
2023/03/20 16:03:42;;;;;;;31.52;18.00;;;8.60;99.90;;;;;;6245049;23;20019;-77
2023/03/20 16:06:10;;;;;;;29.77;17.58;;;8.60;99.90;;;;;;6245163;23;20063;-78
2023/03/20 16:08:37;;;;;;;32.78;17.48;;;8.60;99.90;;;;;;6244864;23;20063;-77
2023/03/20 16:11:05;;;;;;;29.08;15.95;;;8.70;99.90;;;;;;6244557;22;20010;-76
2023/03/20 16:13:35;;;;;;;35.30;18.83;;;8.60;99.90;;;;;;6245915;23;20031;-76
2023/03/20 16:16:03;;;;;;;33.25;19.35;;;8.60;99.90;;;;;;6244181;23;20012;-77
2023/03/20 16:18:32;;;;;;;30.10;17.67;;;8.60;99.90;;;;;;6244468;23;20012;-78
2023/03/20 16:21:02;;;;;;;35.40;17.70;;;8.60;99.90;;;;;;6245076;22;20402;-78
2023/03/20 16:23:38;;;;;;;27.08;15.55;;;8.60;99.90;;;;;;6244528;23;20012;-79
2023/03/20 16:26:07;;;;;;;32.58;16.65;;;8.60;99.90;;;;;;6246138;22;20330;-77
2023/03/20 16:28:36;;;;;;;27.42;16.42;;;8.60;99.90;;;;;;6245480;23;20302;-78
2023/03/20 16:31:14;;;;;;;23.73;14.15;;;8.60;99.90;;;;;;6245040;22;20019;-77
2023/03/20 16:33:40;;;;;;;28.08;15.82;;;8.60;99.90;;;;;;6219026;23;20012;-77
2023/03/20 16:36:06;;;;;;;26.73;15.82;;;8.60;99.90;;;;;;6248175;22;20023;-77
2023/03/20 16:38:34;;;;;;;26.90;15.95;;;8.60;99.90;;;;;;6246404;23;20322;-76
2023/03/20 16:41:23;;;;;;;26.55;14.57;;;8.60;99.90;;;;;;6220727;23;20012;-77
2023/03/20 16:43:50;;;;;;;23.63;13.25;;;8.60;99.90;;;;;;6248779;22;20019;-77
2023/03/20 16:46:25;;;;;;;24.63;13.07;;;8.60;99.90;;;;;;6248395;22;20023;-76
2023/03/20 16:48:55;;;;;;;25.25;15.73;;;8.60;99.90;;;;;;6246717;23;20019;-79
2023/03/20 16:51:30;;;;;;;24.50;15.68;;;8.60;99.90;;;;;;6248403;22;20009;-76
2023/03/20 16:54:00;;;;;;;25.17;15.82;;;8.50;99.90;;;;;;6246586;23;20016;-77
2023/03/20 16:56:37;;;;;;;25.42;14.63;;;8.50;99.90;;;;;;6248006;22;20157;-77
2023/03/20 16:59:16;;;;;;;29.80;16.02;;;8.50;99.90;;;;;;6246260;23;20012;-77
2023/03/20 17:01:43;;;;;;;25.33;16.15;;;8.50;99.90;;;;;;6245465;22;20008;-77
2023/03/20 17:04:32;;;;;;;29.42;17.33;;;8.50;99.90;;;;;;6247524;22;20008;-76
2023/03/20 17:07:09;;;;;;;29.33;16.67;;;8.50;99.90;;;;;;6246252;23;20035;-77